Time;durP1;ratioP1;P1;durP2;ratioP2;P2;SDS_P1;SDS_P2;PMS_P1;PMS_P2;Temp;Humidity;BMP_temperature;BMP_pressure;BME280_temperature;BME280_humidity;BME280_pressure;Samples;Min_cycle;Max_cycle;Signal;HPM_P1;HPM_P2
2022/03/16 00:01:56;;;;;;;0.70;0.50;;;21.10;50.20;;;;;;5111890;27;20506;-46
2022/03/16 00:04:23;;;;;;;3.25;0.50;;;21.00;50.10;;;;;;5120637;27;20035;-47
2022/03/16 00:06:50;;;;;;;0.65;0.35;;;21.00;50.20;;;;;;5105220;27;20047;-46
2022/03/16 00:09:17;;;;;;;2.47;0.50;;;21.00;50.20;;;;;;5103856;27;20039;-45
2022/03/16 00:11:45;;;;;;;0.45;0.32;;;21.00;50.20;;;;;;5114983;27;20047;-46
2022/03/16 00:14:13;;;;;;;0.95;0.20;;;21.00;50.10;;;;;;5120965;27;20130;-46
2022/03/16 00:16:40;;;;;;;1.38;1.00;;;21.00;50.20;;;;;;5130389;27;20043;-46
2022/03/16 00:19:07;;;;;;;0.68;0.68;;;21.00;50.20;;;;;;5125570;27;20092;-50
2022/03/16 00:21:35;;;;;;;0.50;0.30;;;21.00;50.20;;;;;;5125636;27;20038;-46
2022/03/16 00:24:02;;;;;;;0.88;0.30;;;21.00;50.20;;;;;;5116971;27;20039;-46
2022/03/16 00:26:29;;;;;;;3.10;0.30;;;21.00;50.20;;;;;;5125277;27;20039;-48
2022/03/16 00:28:58;;;;;;;1.70;0.43;;;21.00;50.20;;;;;;5114517;27;20048;-46
2022/03/16 00:31:25;;;;;;;0.70;0.70;;;21.00;50.20;;;;;;5127077;27;20031;-48
2022/03/16 00:33:52;;;;;;;2.35;0.43;;;21.00;50.30;;;;;;5130571;27;20043;-48
2022/03/16 00:36:21;;;;;;;0.30;0.30;;;20.90;50.20;;;;;;5111428;27;20043;-46
2022/03/16 00:38:49;;;;;;;0.30;0.20;;;20.90;50.20;;;;;;5115746;27;20111;-45
2022/03/16 00:41:16;;;;;;;0.40;0.30;;;20.90;50.20;;;;;;5120454;27;20068;-45
2022/03/16 00:43:44;;;;;;;0.80;0.20;;;20.90;50.20;;;;;;5130788;27;20680;-46
2022/03/16 00:46:14;;;;;;;0.68;0.30;;;20.90;50.20;;;;;;5119981;27;20035;-48
2022/03/16 00:48:41;;;;;;;0.30;0.30;;;20.90;50.30;;;;;;5125277;27;20049;-46
2022/03/16 00:51:09;;;;;;;0.30;0.20;;;20.90;50.20;;;;;;5121882;27;20100;-45
2022/03/16 00:53:39;;;;;;;1.30;0.20;;;20.90;50.30;;;;;;5128232;27;20043;-46
2022/03/16 00:56:07;;;;;;;0.52;0.35;;;20.90;50.20;;;;;;5116269;27;20040;-45
2022/03/16 00:58:34;;;;;;;0.75;0.10;;;20.90;50.20;;;;;;5129198;27;20035;-46
2022/03/16 01:01:02;;;;;;;2.05;0.50;;;20.90;50.30;;;;;;5121232;27;20527;-45
2022/03/16 01:03:30;;;;;;;0.30;0.30;;;20.90;50.30;;;;;;5121415;27;20066;-47
2022/03/16 01:05:57;;;;;;;0.68;0.65;;;20.90;50.30;;;;;;5100680;27;20034;-48
2022/03/16 01:08:24;;;;;;;0.90;0.57;;;20.90;50.30;;;;;;5122778;27;20574;-47
2022/03/16 01:10:51;;;;;;;0.50;0.50;;;20.90;50.30;;;;;;5121066;27;20112;-46
2022/03/16 01:13:19;;;;;;;1.95;0.25;;;20.90;50.30;;;;;;5121705;27;20039;-46
2022/03/16 01:15:46;;;;;;;0.38;0.38;;;20.80;50.20;;;;;;5128528;27;20043;-47
2022/03/16 01:18:13;;;;;;;0.95;0.82;;;20.80;50.20;;;;;;5108029;27;20045;-45
2022/03/16 01:20:42;;;;;;;1.02;0.30;;;20.90;50.30;;;;;;5128017;27;20088;-46
2022/03/16 01:23:09;;;;;;;0.60;0.50;;;20.90;50.30;;;;;;5114197;27;20102;-45
2022/03/16 01:25:36;;;;;;;1.17;0.30;;;20.80;50.20;;;;;;5130071;27;20548;-45
2022/03/16 01:28:03;;;;;;;0.73;0.32;;;20.80;50.20;;;;;;5111282;27;20050;-46
2022/03/16 01:30:30;;;;;;;0.43;0.43;;;20.80;50.20;;;;;;5129415;27;20122;-44
2022/03/16 01:32:57;;;;;;;0.52;0.20;;;20.80;50.20;;;;;;5113619;27;20043;-46
2022/03/16 01:35:24;;;;;;;1.10;0.45;;;20.80;50.20;;;;;;5118724;27;20035;-45
2022/03/16 01:37:52;;;;;;;1.17;0.28;;;20.80;50.20;;;;;;5115597;27;20050;-45
2022/03/16 01:40:19;;;;;;;0.40;0.38;;;20.80;50.20;;;;;;5124851;27;20050;-44
2022/03/16 01:42:46;;;;;;;0.55;0.20;;;20.80;50.20;;;;;;5124338;27;20048;-44
2022/03/16 01:45:13;;;;;;;0.90;0.28;;;20.80;50.20;;;;;;5115782;27;20043;-46
2022/03/16 01:47:40;;;;;;;0.20;0.20;;;20.80;50.20;;;;;;5098695;27;20568;-46
2022/03/16 01:50:08;;;;;;;0.30;0.30;;;20.80;50.20;;;;;;5122543;27;20047;-44
2022/03/16 01:52:35;;;;;;;0.40;0.20;;;20.80;50.20;;;;;;5129956;27;20045;-46
2022/03/16 01:55:05;;;;;;;0.82;0.30;;;20.80;50.20;;;;;;5107342;27;20570;-47
2022/03/16 01:57:34;;;;;;;0.60;0.40;;;20.80;50.20;;;;;;5108880;27;20043;-46
2022/03/16 02:00:02;;;;;;;0.20;0.20;;;20.80;50.20;;;;;;5114666;27;20459;-46
2022/03/16 02:02:39;;;;;;;0.20;0.20;;;20.80;50.20;;;;;;5115055;27;20058;-45
2022/03/16 02:05:07;;;;;;;0.30;0.30;;;20.80;50.20;;;;;;5117787;27;20047;-45
2022/03/16 02:07:34;;;;;;;0.82;0.35;;;20.80;50.20;;;;;;5127629;27;20035;-45
2022/03/16 02:10:05;;;;;;;1.65;0.22;;;20.80;50.20;;;;;;5122448;27;20483;-48
2022/03/16 02:12:44;;;;;;;1.65;0.50;;;20.80;50.20;;;;;;5121856;27;20126;-46
2022/03/16 02:15:12;;;;;;;0.35;0.35;;;20.80;50.20;;;;;;5118154;27;20418;-46
2022/03/16 02:17:39;;;;;;;0.60;0.30;;;20.80;50.80;;;;;;5124073;27;20403;-48
2022/03/16 02:20:08;;;;;;;0.28;0.20;;;20.70;50.10;;;;;;5116445;27;20075;-47
2022/03/16 02:22:37;;;;;;;0.40;0.20;;;20.80;50.20;;;;;;5124302;27;20039;-48
2022/03/16 02:25:09;;;;;;;0.63;0.40;;;20.80;50.20;;;;;;5120461;27;20044;-47
2022/03/16 02:27:40;;;;;;;1.10;0.30;;;20.80;50.20;;;;;;5117055;27;20046;-48
2022/03/16 02:30:08;;;;;;;0.40;0.30;;;20.70;50.10;;;;;;5116256;27;20369;-45
2022/03/16 02:32:35;;;;;;;1.38;0.20;;;20.70;50.20;;;;;;5118761;27;20039;-45
2022/03/16 02:35:02;;;;;;;0.85;0.17;;;20.70;50.10;;;;;;5116392;27;20047;-47
2022/03/16 02:37:30;;;;;;;0.45;0.30;;;20.70;50.20;;;;;;5118306;27;20035;-45
2022/03/16 02:39:57;;;;;;;0.52;0.20;;;20.70;50.10;;;;;;5128213;27;20049;-46
2022/03/16 02:42:25;;;;;;;0.50;0.28;;;20.70;50.10;;;;;;5120555;27;20043;-45
2022/03/16 02:44:52;;;;;;;0.45;0.28;;;20.70;50.10;;;;;;5112158;27;20224;-47
2022/03/16 02:47:20;;;;;;;0.22;0.22;;;20.70;50.10;;;;;;5115964;27;20559;-50
2022/03/16 02:49:48;;;;;;;1.35;0.20;;;20.70;50.10;;;;;;5125324;27;20044;-48
2022/03/16 02:52:15;;;;;;;0.30;0.20;;;20.70;50.20;;;;;;5126072;27;20406;-46
2022/03/16 02:54:42;;;;;;;0.30;0.20;;;20.70;50.20;;;;;;5126052;27;20030;-48
2022/03/16 02:57:09;;;;;;;0.20;0.20;;;20.70;50.20;;;;;;5115960;27;20575;-47
2022/03/16 02:59:37;;;;;;;1.27;0.43;;;20.70;50.10;;;;;;5122663;27;20100;-45
2022/03/16 03:02:05;;;;;;;0.20;0.10;;;20.70;50.10;;;;;;5115503;27;20055;-46
2022/03/16 03:04:32;;;;;;;1.52;0.35;;;20.70;50.10;;;;;;5120923;27;20139;-46
2022/03/16 03:06:59;;;;;;;0.20;0.10;;;20.70;50.10;;;;;;5122162;27;20043;-46
2022/03/16 03:09:26;;;;;;;1.33;0.45;;;20.70;50.20;;;;;;5127484;27;20760;-46
2022/03/16 03:11:56;;;;;;;0.57;0.20;;;20.60;50.10;;;;;;5110878;27;20052;-48
2022/03/16 03:14:23;;;;;;;0.20;0.20;;;20.60;50.10;;;;;;5118233;27;20507;-46
2022/03/16 03:16:52;;;;;;;0.30;0.20;;;20.60;50.10;;;;;;5112809;27;20066;-48
2022/03/16 03:19:20;;;;;;;0.75;0.13;;;20.60;50.10;;;;;;5117255;27;20047;-46
2022/03/16 03:21:48;;;;;;;0.28;0.10;;;20.60;50.20;;;;;;5125107;27;20046;-48
2022/03/16 03:24:15;;;;;;;0.57;0.35;;;20.60;50.10;;;;;;5100573;27;20407;-48
2022/03/16 03:26:42;;;;;;;0.95;0.40;;;20.60;50.20;;;;;;5093338;27;20050;-46
2022/03/16 03:29:10;;;;;;;0.77;0.20;;;20.60;50.20;;;;;;5116384;27;20043;-47
2022/03/16 03:31:37;;;;;;;0.30;0.30;;;20.60;50.20;;;;;;5109296;27;20135;-47
2022/03/16 03:34:05;;;;;;;0.30;0.10;;;20.60;50.20;;;;;;5120896;27;20054;-45
2022/03/16 03:36:32;;;;;;;1.23;0.20;;;20.60;50.20;;;;;;5118360;27;20043;-46
2022/03/16 03:39:00;;;;;;;0.10;0.10;;;20.60;50.10;;;;;;5113451;27;20502;-47
2022/03/16 03:41:27;;;;;;;0.57;0.30;;;20.60;50.20;;;;;;5115495;27;20053;-50
2022/03/16 03:43:55;;;;;;;0.75;0.40;;;20.60;50.20;;;;;;5118431;27;20071;-48
2022/03/16 03:46:22;;;;;;;0.35;0.20;;;20.60;50.20;;;;;;5101412;27;20518;-47
2022/03/16 03:48:49;;;;;;;0.32;0.32;;;20.60;50.10;;;;;;5126910;27;20521;-47
2022/03/16 03:51:17;;;;;;;0.82;0.20;;;20.60;50.10;;;;;;5117754;27;20050;-47
2022/03/16 03:53:44;;;;;;;0.90;0.43;;;20.60;50.10;;;;;;5111945;28;20043;-48
2022/03/16 03:56:11;;;;;;;0.90;0.40;;;20.60;50.20;;;;;;5118884;27;20045;-46
2022/03/16 03:58:38;;;;;;;0.70;0.47;;;20.60;50.20;;;;;;5126992;27;20039;-45
2022/03/16 04:01:06;;;;;;;0.30;0.30;;;20.60;50.10;;;;;;5123315;27;20894;-46
2022/03/16 04:03:33;;;;;;;0.45;0.30;;;20.60;50.10;;;;;;5123643;27;20039;-46
2022/03/16 04:06:00;;;;;;;0.63;0.40;;;20.60;50.10;;;;;;5116602;27;20080;-47
2022/03/16 04:08:29;;;;;;;2.35;0.30;;;20.60;50.10;;;;;;5109985;27;20039;-47
2022/03/16 04:10:56;;;;;;;0.85;0.28;;;20.50;50.10;;;;;;5115355;27;20047;-46
2022/03/16 04:13:23;;;;;;;1.15;0.82;;;20.60;50.20;;;;;;5123025;27;20046;-50
2022/03/16 04:15:50;;;;;;;1.27;0.63;;;20.50;50.10;;;;;;5117569;27;20419;-47
2022/03/16 04:18:17;;;;;;;0.43;0.32;;;20.50;50.10;;;;;;5115006;27;20043;-46
2022/03/16 04:20:44;;;;;;;0.40;0.40;;;20.50;50.10;;;;;;5121143;27;20452;-46
2022/03/16 04:23:11;;;;;;;0.82;0.45;;;20.50;50.10;;;;;;5120914;27;20035;-49
2022/03/16 04:25:39;;;;;;;1.58;0.30;;;20.50;50.10;;;;;;5118812;27;20454;-47
2022/03/16 04:28:06;;;;;;;0.40;0.40;;;20.50;50.10;;;;;;5118196;27;20043;-46
2022/03/16 04:30:34;;;;;;;1.75;0.40;;;20.50;50.10;;;;;;5103045;27;20046;-46
2022/03/16 04:33:01;;;;;;;1.55;0.40;;;20.50;50.10;;;;;;5120324;27;20066;-48
2022/03/16 04:35:28;;;;;;;0.85;0.65;;;20.50;50.10;;;;;;5111995;27;20054;-49
2022/03/16 04:37:55;;;;;;;0.60;0.60;;;20.50;50.10;;;;;;5117137;27;20521;-45
2022/03/16 04:40:22;;;;;;;0.30;0.20;;;20.50;50.10;;;;;;5126729;27;20044;-46
2022/03/16 04:42:51;;;;;;;0.70;0.57;;;20.50;50.20;;;;;;5119896;27;20135;-48
2022/03/16 04:45:18;;;;;;;0.30;0.30;;;20.50;50.20;;;;;;5118711;27;20118;-47
2022/03/16 04:47:45;;;;;;;0.50;0.50;;;20.50;50.20;;;;;;5119663;27;20050;-50
2022/03/16 04:50:12;;;;;;;2.58;0.70;;;20.50;50.20;;;;;;5095512;27;20050;-48
2022/03/16 04:52:46;;;;;;;1.83;0.47;;;20.50;50.20;;;;;;5128779;27;20050;-45
2022/03/16 04:55:13;;;;;;;0.65;0.65;;;20.50;50.20;;;;;;5111419;27;20055;-48
2022/03/16 04:57:40;;;;;;;0.40;0.40;;;20.50;50.20;;;;;;5112329;27;20031;-47
2022/03/16 05:00:10;;;;;;;0.40;0.40;;;20.40;50.20;;;;;;5125150;27;20046;-46
2022/03/16 05:02:37;;;;;;;0.45;0.40;;;20.40;50.20;;;;;;5125573;27;20050;-47
2022/03/16 05:05:05;;;;;;;0.40;0.40;;;20.40;50.20;;;;;;5124780;27;20062;-47
2022/03/16 05:07:32;;;;;;;0.57;0.57;;;20.40;50.20;;;;;;5122946;27;20048;-46
2022/03/16 05:10:00;;;;;;;2.28;0.40;;;20.40;50.20;;;;;;5123563;27;20051;-47
2022/03/16 05:12:27;;;;;;;0.43;0.43;;;20.40;50.80;;;;;;5126047;27;20035;-45
2022/03/16 05:14:54;;;;;;;0.63;0.60;;;20.40;50.20;;;;;;5122823;27;20026;-48
2022/03/16 05:17:22;;;;;;;0.32;0.32;;;20.40;50.20;;;;;;5114895;27;20047;-45
2022/03/16 05:19:51;;;;;;;0.40;0.38;;;20.40;50.20;;;;;;5120095;27;20114;-45
2022/03/16 05:22:18;;;;;;;0.60;0.60;;;20.40;50.20;;;;;;5129313;27;20043;-45
2022/03/16 05:24:46;;;;;;;1.67;0.30;;;20.40;50.30;;;;;;5122997;27;20858;-46
2022/03/16 05:27:13;;;;;;;0.30;0.30;;;20.40;50.20;;;;;;5116429;27;20058;-46
2022/03/16 05:29:40;;;;;;;0.82;0.30;;;20.40;50.20;;;;;;5100194;27;20123;-44
2022/03/16 05:32:08;;;;;;;0.75;0.40;;;20.40;50.20;;;;;;5126129;27;20039;-47
2022/03/16 05:34:36;;;;;;;0.45;0.45;;;20.40;50.20;;;;;;5124591;27;20406;-46
2022/03/16 05:37:05;;;;;;;0.30;0.30;;;20.40;50.30;;;;;;5124456;27;20048;-46
2022/03/16 05:39:32;;;;;;;0.20;0.20;;;20.30;50.20;;;;;;5121362;27;20046;-45
2022/03/16 05:42:00;;;;;;;0.38;0.38;;;20.30;50.20;;;;;;5112399;27;20074;-45
2022/03/16 05:44:27;;;;;;;0.38;0.38;;;20.30;50.20;;;;;;5116840;27;20051;-45
2022/03/16 05:46:57;;;;;;;2.10;0.50;;;20.30;50.20;;;;;;5123231;27;20791;-45
2022/03/16 05:49:25;;;;;;;1.88;0.28;;;20.30;50.20;;;;;;5120192;27;20051;-46
2022/03/16 05:51:53;;;;;;;0.60;0.35;;;20.30;50.20;;;;;;5121796;27;20067;-45
2022/03/16 05:54:20;;;;;;;0.30;0.30;;;20.30;50.30;;;;;;5122600;27;20035;-45
2022/03/16 05:56:47;;;;;;;0.25;0.25;;;20.30;50.20;;;;;;5119323;27;20044;-45
2022/03/16 05:59:14;;;;;;;0.90;0.50;;;20.30;50.20;;;;;;5114788;27;20050;-45
2022/03/16 06:01:42;;;;;;;2.22;0.50;;;20.30;50.20;;;;;;5118385;27;20215;-46
2022/03/16 06:04:09;;;;;;;0.43;0.40;;;20.30;50.30;;;;;;5127250;27;20039;-45
2022/03/16 06:06:36;;;;;;;1.00;0.30;;;20.30;50.30;;;;;;5121399;27;20412;-49
2022/03/16 06:09:04;;;;;;;0.52;0.52;;;20.30;50.30;;;;;;5113246;27;20049;-49
2022/03/16 06:11:32;;;;;;;0.70;0.25;;;20.30;50.30;;;;;;5111051;27;20112;-47
2022/03/16 06:13:59;;;;;;;0.32;0.22;;;20.30;50.30;;;;;;5125982;27;20035;-49
2022/03/16 06:16:26;;;;;;;0.60;0.30;;;20.30;50.30;;;;;;5133021;27;20115;-45
2022/03/16 06:18:53;;;;;;;0.85;0.50;;;20.30;50.30;;;;;;5127105;27;20054;-49
2022/03/16 06:21:20;;;;;;;0.40;0.35;;;20.30;50.30;;;;;;5120744;27;20043;-46
2022/03/16 06:23:47;;;;;;;1.48;0.52;;;20.30;50.30;;;;;;5122421;27;20074;-49
2022/03/16 06:26:16;;;;;;;1.48;0.30;;;20.30;50.30;;;;;;5116077;27;20044;-47
2022/03/16 06:28:43;;;;;;;1.40;0.47;;;20.30;50.30;;;;;;5122768;27;20116;-47
2022/03/16 06:31:10;;;;;;;1.65;0.45;;;20.30;50.30;;;;;;5119358;27;20043;-44
2022/03/16 06:33:37;;;;;;;0.95;0.20;;;20.30;50.30;;;;;;5119347;27;20129;-47
2022/03/16 06:36:04;;;;;;;0.98;0.55;;;20.30;50.30;;;;;;5116348;27;20050;-48
2022/03/16 06:38:31;;;;;;;0.55;0.20;;;20.30;50.30;;;;;;5115169;27;20121;-46
2022/03/16 06:40:58;;;;;;;0.93;0.45;;;20.30;50.30;;;;;;5123741;27;20035;-46
2022/03/16 06:43:27;;;;;;;0.57;0.52;;;20.30;50.30;;;;;;5121690;27;20059;-47
2022/03/16 06:45:54;;;;;;;0.52;0.30;;;20.30;50.30;;;;;;5130192;27;20069;-47
2022/03/16 06:48:23;;;;;;;3.45;0.70;;;20.30;50.30;;;;;;5121127;27;20031;-47
2022/03/16 06:50:50;;;;;;;0.57;0.40;;;20.30;50.30;;;;;;5113329;27;20035;-45
2022/03/16 06:53:17;;;;;;;0.73;0.45;;;20.30;50.30;;;;;;5117913;27;20368;-49
2022/03/16 06:55:44;;;;;;;1.60;0.20;;;20.30;50.30;;;;;;5126033;27;20085;-46
2022/03/16 06:58:11;;;;;;;0.43;0.43;;;20.30;50.30;;;;;;5120458;27;20044;-46
2022/03/16 07:00:40;;;;;;;0.60;0.60;;;20.30;50.30;;;;;;5120483;27;20039;-47
2022/03/16 07:03:07;;;;;;;1.85;0.35;;;20.30;50.30;;;;;;5096228;27;20519;-46
2022/03/16 07:05:36;;;;;;;1.15;0.43;;;20.30;50.30;;;;;;5132221;27;20561;-47
2022/03/16 07:08:06;;;;;;;1.85;0.50;;;20.30;50.30;;;;;;5116457;27;20040;-47
2022/03/16 07:10:35;;;;;;;0.63;0.63;;;20.30;50.30;;;;;;5122046;27;20062;-48
2022/03/16 07:13:02;;;;;;;0.77;0.63;;;20.30;50.30;;;;;;5122950;27;20126;-50
2022/03/16 07:15:31;;;;;;;0.40;0.40;;;20.30;50.30;;;;;;5123156;27;20128;-47
2022/03/16 07:18:01;;;;;;;2.83;0.25;;;20.30;50.20;;;;;;5112940;27;20112;-48
2022/03/16 07:20:28;;;;;;;0.68;0.50;;;20.30;50.20;;;;;;5118450;27;20043;-49
2022/03/16 07:23:04;;;;;;;1.05;0.25;;;20.30;50.30;;;;;;5128794;27;20043;-47
2022/03/16 07:25:31;;;;;;;1.38;0.22;;;20.30;50.20;;;;;;5126505;27;20419;-48
2022/03/16 07:27:58;;;;;;;1.13;0.28;;;20.30;50.20;;;;;;5126699;27;20047;-46
2022/03/16 07:30:26;;;;;;;1.42;0.38;;;20.30;50.20;;;;;;5118465;27;20846;-50
2022/03/16 07:32:53;;;;;;;3.30;0.30;;;20.30;50.20;;;;;;5112855;27;20050;-47
2022/03/16 07:35:26;;;;;;;0.60;0.30;;;20.30;50.20;;;;;;5117932;27;20048;-46
2022/03/16 07:37:54;;;;;;;1.20;0.50;;;20.30;50.20;;;;;;5126195;27;20052;-47
2022/03/16 07:40:22;;;;;;;1.08;0.73;;;20.30;50.20;;;;;;5119425;27;20065;-48
2022/03/16 07:42:50;;;;;;;0.40;0.30;;;20.30;50.20;;;;;;5118887;27;20043;-46
2022/03/16 07:45:18;;;;;;;1.08;0.63;;;20.30;50.20;;;;;;5116840;27;20050;-49
2022/03/16 07:47:46;;;;;;;2.25;0.40;;;20.30;50.10;;;;;;5121249;27;20065;-48
2022/03/16 07:50:14;;;;;;;2.05;0.73;;;20.30;50.20;;;;;;5109962;27;20039;-49
2022/03/16 07:52:42;;;;;;;2.28;0.88;;;20.30;50.10;;;;;;5122390;27;20071;-47
2022/03/16 07:55:11;;;;;;;4.82;1.45;;;20.30;50.10;;;;;;5127823;27;20414;-47
2022/03/16 07:57:38;;;;;;;0.98;0.80;;;20.30;50.10;;;;;;5124961;27;20035;-49
2022/03/16 08:00:07;;;;;;;1.30;0.75;;;20.30;50.10;;;;;;5112282;27;20072;-47
2022/03/16 08:02:35;;;;;;;3.80;0.88;;;20.30;50.10;;;;;;5111230;27;20511;-47
2022/03/16 08:05:02;;;;;;;1.30;0.77;;;20.30;50.10;;;;;;5117137;27;20478;-46
2022/03/16 08:07:30;;;;;;;1.95;0.60;;;20.30;50.00;;;;;;5122866;27;20039;-46
2022/03/16 08:09:59;;;;;;;2.03;1.00;;;20.30;50.00;;;;;;5127107;27;20035;-47
2022/03/16 08:12:26;;;;;;;1.02;0.63;;;20.30;50.00;;;;;;5099364;27;20038;-47
2022/03/16 08:14:54;;;;;;;1.70;0.40;;;20.40;50.10;;;;;;5111520;27;20045;-46
2022/03/16 08:17:21;;;;;;;1.15;0.70;;;20.30;50.00;;;;;;5114106;27;20059;-46
2022/03/16 08:19:48;;;;;;;1.70;1.20;;;20.30;49.90;;;;;;5127990;27;20039;-49
2022/03/16 08:22:24;;;;;;;1.70;1.05;;;20.40;50.00;;;;;;5126156;27;20047;-46
2022/03/16 08:24:51;;;;;;;1.92;1.42;;;20.40;50.00;;;;;;5126446;27;20040;-48
2022/03/16 08:27:20;;;;;;;1.40;0.82;;;20.30;49.90;;;;;;5124534;27;20061;-48
2022/03/16 08:29:47;;;;;;;2.58;1.23;;;20.30;49.90;;;;;;5127359;27;20050;-47
2022/03/16 08:32:14;;;;;;;2.33;0.93;;;20.30;49.90;;;;;;5117701;27;20085;-47
2022/03/16 08:34:41;;;;;;;2.72;0.73;;;20.40;50.00;;;;;;5126536;27;20133;-47
2022/03/16 08:37:08;;;;;;;1.58;1.35;;;20.40;50.00;;;;;;5129716;27;20035;-48
2022/03/16 08:39:35;;;;;;;1.35;1.17;;;20.40;49.90;;;;;;5124184;27;20114;-47
2022/03/16 08:42:03;;;;;;;2.55;1.42;;;20.40;49.90;;;;;;5116590;27;20046;-46
2022/03/16 08:44:31;;;;;;;0.73;0.60;;;20.40;49.90;;;;;;5113581;27;20071;-47
2022/03/16 08:46:58;;;;;;;1.38;1.13;;;20.40;49.90;;;;;;5106607;27;20385;-48
2022/03/16 08:49:25;;;;;;;3.47;0.98;;;20.40;49.80;;;;;;5124467;27;20032;-47
2022/03/16 08:51:52;;;;;;;2.05;1.48;;;20.40;49.80;;;;;;5107516;27;20057;-47
2022/03/16 08:54:19;;;;;;;2.33;0.70;;;20.40;49.80;;;;;;5122883;27;20069;-46
2022/03/16 08:56:47;;;;;;;2.40;1.23;;;20.40;49.80;;;;;;5095811;27;20718;-46
2022/03/16 08:59:14;;;;;;;3.28;1.75;;;20.40;49.80;;;;;;5116933;27;20051;-47
2022/03/16 09:01:42;;;;;;;2.55;1.00;;;20.40;49.80;;;;;;5126095;27;20081;-49
2022/03/16 09:04:09;;;;;;;1.58;0.90;;;20.40;49.80;;;;;;5121041;27;20171;-48
2022/03/16 09:06:36;;;;;;;2.72;1.52;;;20.50;49.80;;;;;;5125708;27;20034;-46
2022/03/16 09:09:03;;;;;;;1.63;0.88;;;20.50;49.80;;;;;;5100773;27;20577;-47
2022/03/16 09:11:32;;;;;;;1.58;1.13;;;20.40;49.70;;;;;;5123218;27;20035;-48
2022/03/16 09:13:59;;;;;;;1.55;1.45;;;20.50;49.80;;;;;;5119290;27;20053;-46
2022/03/16 09:16:27;;;;;;;2.15;0.90;;;20.50;49.70;;;;;;5120900;27;20046;-46
2022/03/16 09:18:55;;;;;;;3.95;1.38;;;20.50;49.70;;;;;;5128286;27;20041;-46
2022/03/16 09:21:24;;;;;;;1.63;0.98;;;20.50;49.70;;;;;;5119716;27;20114;-45
2022/03/16 09:23:52;;;;;;;3.13;0.80;;;20.50;49.70;;;;;;5115462;27;20138;-46
2022/03/16 09:26:21;;;;;;;2.03;1.13;;;20.50;49.70;;;;;;5120319;27;20546;-45
2022/03/16 09:28:48;;;;;;;6.25;1.55;;;20.50;49.60;;;;;;5128884;27;20043;-45
2022/03/16 09:31:15;;;;;;;3.25;0.98;;;20.60;49.70;;;;;;5123959;27;20096;-46
2022/03/16 09:33:43;;;;;;;2.55;1.58;;;20.50;49.60;;;;;;5128671;27;20039;-45
2022/03/16 09:36:12;;;;;;;1.65;1.23;;;20.60;49.60;;;;;;5122788;27;20465;-47
2022/03/16 09:38:39;;;;;;;3.40;1.98;;;20.60;49.60;;;;;;5134024;27;20042;-47
2022/03/16 09:41:07;;;;;;;3.50;1.13;;;20.60;49.50;;;;;;5117617;27;20047;-46
2022/03/16 09:43:36;;;;;;;2.53;1.30;;;20.60;49.50;;;;;;5124200;27;20086;-47
2022/03/16 09:46:10;;;;;;;2.13;1.02;;;20.60;49.50;;;;;;5119869;27;20638;-46
2022/03/16 09:48:39;;;;;;;1.52;1.02;;;20.70;49.50;;;;;;5117801;27;20039;-46
2022/03/16 09:51:07;;;;;;;2.65;1.55;;;20.60;49.50;;;;;;5116604;27;20122;-47
2022/03/16 09:53:35;;;;;;;1.08;0.63;;;20.60;49.40;;;;;;5120765;27;20065;-45
2022/03/16 09:56:03;;;;;;;1.38;1.20;;;20.70;49.40;;;;;;5117917;27;20036;-47
2022/03/16 09:58:30;;;;;;;3.08;0.95;;;20.70;49.40;;;;;;5120748;27;20126;-47
2022/03/16 10:00:57;;;;;;;1.17;1.15;;;20.70;49.30;;;;;;5129570;27;20131;-45
2022/03/16 10:03:28;;;;;;;1.10;0.82;;;20.70;49.30;;;;;;5120181;27;20042;-45
2022/03/16 10:05:57;;;;;;;1.77;1.45;;;20.70;49.30;;;;;;5113460;27;20070;-46
2022/03/16 10:08:29;;;;;;;1.17;1.10;;;20.80;49.30;;;;;;5099622;27;20041;-48
2022/03/16 10:13:58;;;;;;;2.80;1.38;;;20.80;49.20;;;;;;5119989;27;20158;-50
2022/03/16 10:17:43;;;;;;;3.60;1.30;;;20.80;49.20;;;;;;5121437;27;20043;-46
2022/03/16 10:19:13;;;;;;;3.72;1.15;;;20.80;49.10;;;;;;5130248;27;20046;-49
2022/03/16 10:21:40;;;;;;;3.08;1.50;;;20.80;49.10;;;;;;5122089;27;20803;-47
2022/03/16 10:24:07;;;;;;;1.40;1.20;;;20.80;49.10;;;;;;5124785;27;20067;-47
2022/03/16 10:26:36;;;;;;;1.73;1.00;;;20.80;49.00;;;;;;5118428;27;20047;-47
2022/03/16 10:29:04;;;;;;;1.88;0.98;;;20.90;49.00;;;;;;5126402;27;20039;-45
2022/03/16 10:31:32;;;;;;;2.95;1.05;;;20.90;49.00;;;;;;5120885;27;20549;-45
2022/03/16 10:34:03;;;;;;;0.95;0.85;;;20.90;48.90;;;;;;5123955;27;21026;-45
2022/03/16 10:36:39;;;;;;;4.25;1.30;;;20.90;48.90;;;;;;5121834;27;20040;-46
2022/03/16 10:39:07;;;;;;;5.32;1.33;;;20.90;49.40;;;;;;5117413;27;20088;-45
2022/03/16 10:47:12;;;;;;;3.55;1.13;;;21.00;48.80;;;;;;5108691;27;20044;-46
2022/03/16 10:49:39;;;;;;;1.70;0.70;;;21.00;48.70;;;;;;5121421;27;20039;-45
2022/03/16 10:52:10;;;;;;;2.55;1.42;;;21.00;48.70;;;;;;5130993;27;20051;-45
2022/03/16 10:54:39;;;;;;;2.45;1.17;;;21.00;48.70;;;;;;5119778;27;20084;-45
2022/03/16 10:57:10;;;;;;;3.22;1.13;;;21.00;48.60;;;;;;5112214;27;20036;-45
2022/03/16 10:59:38;;;;;;;3.85;1.05;;;21.00;48.60;;;;;;5117048;27;20039;-47
2022/03/16 11:02:12;;;;;;;2.63;0.85;;;21.00;48.60;;;;;;5122114;27;20278;-47
2022/03/16 11:04:40;;;;;;;1.55;1.40;;;21.10;48.50;;;;;;5119822;27;20427;-46
2022/03/16 11:07:08;;;;;;;1.63;1.45;;;21.10;48.50;;;;;;5120224;27;20040;-49
2022/03/16 11:09:37;;;;;;;2.97;1.83;;;21.10;48.40;;;;;;5123193;27;20050;-48
2022/03/16 11:14:53;;;;;;;2.05;0.57;;;21.20;48.40;;;;;;5112657;27;20047;-47
2022/03/16 11:17:21;;;;;;;2.28;1.35;;;21.20;48.30;;;;;;5117389;27;20419;-46
2022/03/16 11:19:51;;;;;;;4.45;0.95;;;21.20;48.30;;;;;;5131917;27;20419;-46
2022/03/16 11:22:23;;;;;;;0.88;0.82;;;21.20;48.20;;;;;;5126305;27;20139;-47
2022/03/16 11:25:00;;;;;;;3.05;1.27;;;21.30;48.20;;;;;;5127326;27;20038;-46
2022/03/16 11:27:40;;;;;;;1.35;0.85;;;21.30;48.10;;;;;;5121062;27;20032;-45
2022/03/16 11:30:13;;;;;;;0.52;0.52;;;21.30;48.10;;;;;;5121876;27;20035;-49
2022/03/16 11:32:42;;;;;;;3.55;0.52;;;21.30;48.00;;;;;;5109196;27;20097;-48
2022/03/16 11:35:12;;;;;;;2.33;1.20;;;21.40;48.10;;;;;;5124287;27;20495;-48
2022/03/16 11:37:42;;;;;;;6.85;1.38;;;21.30;47.90;;;;;;5121667;27;20443;-46
2022/03/16 11:40:11;;;;;;;7.05;1.42;;;21.40;48.00;;;;;;5117942;27;20058;-47
2022/03/16 11:42:43;;;;;;;3.35;0.77;;;21.40;47.80;;;;;;5125601;27;20046;-48
2022/03/16 11:45:41;;;;;;;3.30;1.13;;;21.40;47.80;;;;;;5129112;27;20179;-49
2022/03/16 11:48:40;;;;;;;2.97;1.13;;;21.50;47.70;;;;;;5069980;28;20091;-48
2022/03/16 11:51:32;;;;;;;2.70;1.25;;;21.50;47.70;;;;;;5077472;28;20075;-46
2022/03/16 11:54:12;;;;;;;1.80;1.10;;;21.50;47.60;;;;;;5077128;28;20067;-47
2022/03/16 11:56:59;;;;;;;1.65;0.77;;;21.50;47.60;;;;;;5068008;28;20063;-47
2022/03/16 11:59:44;;;;;;;2.05;1.33;;;21.60;47.60;;;;;;5085171;28;20059;-47
2022/03/16 12:02:20;;;;;;;2.25;0.90;;;21.60;47.60;;;;;;5079155;28;20052;-48
2022/03/16 12:04:49;;;;;;;5.65;1.88;;;21.60;47.60;;;;;;5075406;28;20052;-48
2022/03/16 12:07:19;;;;;;;5.45;0.98;;;21.60;47.50;;;;;;5078078;28;20045;-51
2022/03/16 12:09:47;;;;;;;3.40;0.75;;;21.70;47.50;;;;;;5082308;28;20048;-47
2022/03/16 12:15:17;;;;;;;1.65;1.00;;;21.80;47.30;;;;;;5073507;28;20052;-46
2022/03/16 12:18:34;;;;;;;2.55;1.15;;;21.80;47.20;;;;;;5070859;28;20071;-46
2022/03/16 12:21:08;;;;;;;0.63;0.50;;;21.80;47.10;;;;;;5068987;28;20036;-45
2022/03/16 12:23:54;;;;;;;4.05;0.73;;;21.80;47.10;;;;;;5110252;28;20031;-45
2022/03/16 12:26:25;;;;;;;2.17;1.05;;;21.90;47.00;;;;;;5118511;27;20046;-48
2022/03/16 12:29:01;;;;;;;3.63;1.05;;;21.90;47.00;;;;;;5115682;27;20039;-50
2022/03/16 12:31:31;;;;;;;1.50;1.13;;;22.00;46.90;;;;;;5117425;27;20035;-48
2022/03/16 12:33:59;;;;;;;3.42;1.00;;;22.00;46.80;;;;;;5127247;27;20042;-47
2022/03/16 12:36:28;;;;;;;4.20;1.35;;;22.00;46.80;;;;;;5123975;27;20043;-46
2022/03/16 12:38:57;;;;;;;6.60;1.67;;;22.00;46.70;;;;;;5113646;28;20035;-47
2022/03/16 12:44:11;;;;;;;3.75;1.17;;;22.00;47.10;;;;;;5125274;27;20051;-47
2022/03/16 12:46:51;;;;;;;2.85;1.60;;;22.10;46.60;;;;;;5119064;27;20051;-47
2022/03/16 12:49:20;;;;;;;1.40;0.93;;;22.10;46.50;;;;;;5119329;27;20607;-48
2022/03/16 12:51:48;;;;;;;2.97;1.17;;;22.10;46.50;;;;;;5124947;27;20062;-47
2022/03/16 12:54:20;;;;;;;7.25;0.70;;;22.10;46.40;;;;;;5120113;27;20043;-47
2022/03/16 12:56:50;;;;;;;2.17;0.70;;;22.20;46.40;;;;;;5118178;28;20420;-47
2022/03/16 12:59:22;;;;;;;3.92;2.35;;;22.20;46.40;;;;;;5132276;27;20120;-46
2022/03/16 13:01:51;;;;;;;2.92;1.27;;;22.20;46.30;;;;;;5125602;27;20035;-48
2022/03/16 13:04:19;;;;;;;4.25;1.10;;;22.30;46.30;;;;;;5102308;28;20117;-48
2022/03/16 13:06:46;;;;;;;1.02;0.95;;;22.30;46.30;;;;;;5133827;27;20042;-50
2022/03/16 13:09:13;;;;;;;1.23;0.95;;;22.30;46.20;;;;;;5120842;27;20031;-47
2022/03/16 13:11:42;;;;;;;4.70;1.33;;;22.30;46.10;;;;;;5113623;27;20106;-49
2022/03/16 13:14:13;;;;;;;1.42;1.02;;;22.30;46.00;;;;;;5115986;27;20040;-50